createdAt,value
2022-10-31T00:00:22.829Z,69.48
2022-10-31T00:01:54.769Z,69.73
2022-10-31T00:03:27.705Z,69.43
2022-10-31T00:04:59.632Z,69.47
2022-10-31T00:06:31.953Z,69.50
2022-10-31T00:08:04.046Z,69.59
2022-10-31T00:09:36.140Z,69.64
2022-10-31T00:11:11.484Z,69.87
2022-10-31T00:12:43.475Z,69.96
2022-10-31T00:14:15.454Z,69.85
2022-10-31T00:15:50.410Z,69.84
2022-10-31T00:17:22.494Z,69.85
2022-10-31T00:18:59.200Z,70.20
2022-10-31T00:20:31.320Z,69.97
2022-10-31T00:22:03.346Z,70.34
2022-10-31T00:23:35.291Z,70.37
2022-10-31T00:25:07.470Z,70.43
2022-10-31T00:31:36.936Z,70.61
2022-10-31T00:33:08.944Z,70.91
2022-10-31T00:34:40.943Z,71.49
2022-10-31T00:36:15.256Z,71.57
2022-10-31T00:37:47.331Z,71.57
2022-10-31T00:39:19.279Z,71.80
2022-10-31T00:40:51.305Z,71.75
2022-10-31T00:42:23.241Z,71.37
2022-10-31T00:43:55.335Z,71.33
2022-10-31T00:45:27.453Z,71.50
2022-10-31T00:46:59.535Z,71.37
2022-10-31T00:48:31.675Z,71.35
2022-10-31T00:50:05.386Z,71.19
2022-10-31T00:51:37.321Z,71.51
2022-10-31T00:53:09.518Z,71.34
2022-10-31T00:54:41.529Z,71.27
2022-10-31T00:56:13.551Z,70.98
2022-10-31T00:57:48.323Z,70.73
2022-10-31T00:59:20.259Z,70.55
2022-10-31T01:00:56.371Z,70.35
2022-10-31T01:02:28.753Z,70.31
2022-10-31T01:04:00.786Z,70.15
2022-10-31T01:05:32.919Z,69.94
2022-10-31T01:07:04.948Z,69.78
2022-10-31T01:08:38.091Z,70.17
2022-10-31T01:10:12.150Z,70.58
2022-10-31T01:11:44.195Z,70.25
2022-10-31T01:13:16.257Z,70.55
2022-10-31T01:14:48.345Z,70.33
2022-10-31T01:16:22.686Z,70.49
2022-10-31T01:17:54.932Z,70.02
2022-10-31T01:19:26.897Z,69.82
2022-10-31T01:21:05.323Z,69.57
2022-10-31T01:22:37.460Z,69.67
2022-10-31T01:24:09.626Z,69.77
2022-10-31T01:25:43.799Z,69.77
2022-10-31T01:27:15.767Z,69.69
2022-10-31T01:29:16.931Z,69.82
2022-10-31T01:30:48.935Z,70.27
2022-10-31T01:32:20.909Z,69.76
2022-10-31T01:33:52.971Z,69.71
2022-10-31T01:35:25.356Z,69.50
2022-10-31T01:36:57.647Z,69.28
2022-10-31T01:38:29.627Z,69.38
2022-10-31T01:40:01.692Z,69.14
2022-10-31T01:41:36.426Z,68.95
2022-10-31T01:43:13.246Z,68.79
2022-10-31T01:44:49.829Z,69.25
2022-10-31T01:46:27.415Z,68.88
2022-10-31T01:47:59.697Z,68.89
2022-10-31T01:49:39.080Z,68.87
2022-10-31T01:51:12.910Z,69.36
2022-10-31T01:52:47.553Z,69.38
2022-10-31T01:54:22.908Z,69.12
2022-10-31T01:55:54.894Z,69.05
2022-10-31T01:57:27.502Z,68.68
2022-10-31T01:59:01.841Z,68.33
2022-10-31T02:00:33.859Z,68.63
2022-10-31T02:02:06.289Z,68.56
2022-10-31T02:05:26.537Z,68.60
2022-10-31T02:07:03.497Z,68.62
2022-10-31T02:08:36.470Z,68.55
2022-10-31T02:10:08.849Z,68.63
2022-10-31T02:11:41.927Z,68.21
2022-10-31T02:13:14.332Z,68.28
2022-10-31T02:14:46.334Z,68.19
2022-10-31T02:16:18.896Z,69.02
2022-10-31T02:17:51.076Z,68.84
2022-10-31T02:19:42.449Z,69.18
2022-10-31T02:21:28.673Z,68.72
2022-10-31T02:23:39.010Z,68.54
2022-10-31T02:25:30.594Z,68.69
2022-10-31T02:27:22.605Z,68.93
2022-10-31T02:29:12.019Z,68.84
2022-10-31T02:30:46.620Z,68.36
2022-10-31T02:32:22.838Z,68.36
2022-10-31T02:34:00.935Z,68.66
2022-10-31T02:35:50.904Z,68.55
2022-10-31T02:37:47.644Z,68.27
2022-10-31T02:39:40.950Z,68.26
2022-10-31T02:41:36.762Z,68.36
2022-10-31T02:43:28.346Z,68.47
2022-10-31T02:45:09.198Z,68.54
2022-10-31T02:47:13.212Z,68.53
2022-10-31T02:48:46.189Z,69.03
2022-10-31T02:50:28.687Z,69.12
2022-10-31T02:52:00.679Z,69.24
2022-10-31T02:53:37.295Z,69.39
2022-10-31T02:55:24.450Z,69.37
2022-10-31T02:57:00.639Z,69.31
2022-10-31T02:58:36.550Z,69.43
2022-10-31T03:00:10.136Z,69.58
2022-10-31T03:02:16.518Z,69.83
2022-10-31T03:03:48.569Z,70.11
2022-10-31T03:05:44.578Z,70.45
2022-10-31T03:07:35.125Z,70.40
2022-10-31T03:09:22.379Z,70.49
2022-10-31T03:11:02.804Z,70.76
2022-10-31T03:12:48.644Z,70.57
2022-10-31T03:14:28.425Z,70.63
2022-10-31T03:16:14.382Z,70.50
2022-10-31T03:17:57.270Z,70.62
2022-10-31T03:19:42.043Z,70.27
2022-10-31T03:21:26.908Z,70.32
2022-10-31T03:22:59.993Z,70.43
2022-10-31T03:24:38.990Z,70.22
2022-10-31T03:26:12.790Z,70.53
2022-10-31T03:27:46.048Z,70.52
2022-10-31T03:29:21.236Z,70.43
2022-10-31T03:30:53.953Z,70.48
2022-10-31T03:32:40.198Z,70.74
2022-10-31T03:34:13.910Z,70.98
2022-10-31T03:35:48.752Z,71.04
2022-10-31T03:37:22.247Z,70.95
2022-10-31T03:38:54.253Z,70.97
2022-10-31T03:40:28.913Z,71.02
2022-10-31T03:42:07.581Z,71.23
2022-10-31T03:43:44.283Z,71.28
2022-10-31T03:45:21.322Z,71.21
2022-10-31T03:46:53.452Z,71.33
2022-10-31T03:48:25.910Z,71.41
2022-10-31T03:49:58.071Z,71.33
2022-10-31T03:51:38.625Z,71.27
2022-10-31T03:53:19.064Z,71.19
2022-10-31T03:54:57.564Z,71.28
2022-10-31T03:56:41.773Z,71.54
2022-10-31T03:58:26.996Z,71.65
2022-10-31T04:00:25.374Z,71.50
2022-10-31T04:02:03.551Z,71.90
2022-10-31T04:03:37.745Z,72.03
2022-10-31T04:05:11.464Z,72.27
2022-10-31T04:06:44.585Z,72.54
2022-10-31T04:08:21.596Z,72.50
2022-10-31T04:09:55.133Z,72.55
2022-10-31T04:11:31.278Z,72.58
2022-10-31T04:13:07.133Z,72.66
2022-10-31T04:14:44.187Z,72.69
2022-10-31T04:16:17.439Z,72.87
2022-10-31T04:17:49.459Z,72.48
2022-10-31T04:19:21.458Z,72.67
2022-10-31T04:21:04.808Z,72.60
2022-10-31T04:22:36.957Z,72.81
2022-10-31T04:24:09.288Z,72.85
2022-10-31T04:25:41.308Z,72.58
2022-10-31T04:27:13.325Z,72.71
2022-10-31T04:28:45.420Z,72.90
2022-10-31T04:30:20.080Z,72.93
2022-10-31T04:31:52.176Z,73.14
2022-10-31T04:33:24.194Z,72.99
2022-10-31T04:34:56.168Z,73.21
2022-10-31T04:36:28.230Z,73.22
2022-10-31T04:38:00.194Z,73.34
2022-10-31T04:39:32.149Z,73.21
2022-10-31T04:41:04.279Z,73.21
2022-10-31T04:42:36.465Z,73.30
2022-10-31T04:44:08.554Z,73.44
2022-10-31T04:45:40.646Z,73.21
2022-10-31T04:47:12.747Z,72.95
2022-10-31T04:48:44.827Z,72.96
2022-10-31T04:50:16.972Z,73.35
2022-10-31T04:51:49.046Z,73.44
2022-10-31T04:53:21.009Z,74.02
2022-10-31T04:54:52.994Z,73.90
2022-10-31T04:56:24.933Z,74.03
2022-10-31T04:57:57.194Z,74.16
2022-10-31T04:59:29.368Z,74.17
2022-10-31T05:01:01.462Z,74.08
2022-10-31T05:02:33.553Z,74.26
2022-10-31T05:04:08.305Z,74.04
2022-10-31T05:05:40.278Z,74.06
2022-10-31T05:07:12.514Z,74.08
2022-10-31T05:08:44.570Z,74.13
2022-10-31T05:10:19.719Z,73.91
2022-10-31T05:11:51.735Z,73.75
2022-10-31T05:13:23.721Z,73.97
2022-10-31T05:14:55.843Z,73.71
2022-10-31T05:16:27.865Z,73.89
2022-10-31T05:18:02.413Z,73.96
2022-10-31T05:19:34.780Z,73.71
2022-10-31T05:21:06.863Z,73.85
2022-10-31T05:22:42.901Z,74.00
2022-10-31T05:24:15.288Z,73.79
2022-10-31T05:25:47.520Z,73.93
2022-10-31T05:27:19.593Z,74.19
2022-10-31T05:28:51.687Z,74.50
2022-10-31T05:30:30.163Z,74.55
2022-10-31T05:32:02.243Z,74.81
2022-10-31T05:33:34.487Z,74.70
2022-10-31T05:35:09.668Z,74.69
2022-10-31T05:36:41.895Z,74.84
2022-10-31T05:38:14.146Z,74.83
2022-10-31T05:39:46.359Z,74.77
2022-10-31T05:41:18.494Z,74.85
2022-10-31T05:42:53.277Z,74.73
2022-10-31T05:44:25.473Z,74.82
2022-10-31T05:45:58.231Z,75.20
2022-10-31T05:47:30.519Z,75.46
2022-10-31T05:49:03.046Z,75.45
2022-10-31T05:50:35.304Z,75.59
2022-10-31T05:52:07.540Z,75.57
2022-10-31T05:53:39.949Z,75.50
2022-10-31T05:55:12.181Z,75.17
2022-10-31T05:56:44.600Z,75.33
2022-10-31T05:58:16.893Z,75.19
2022-10-31T05:59:54.659Z,74.97
2022-10-31T06:01:27.286Z,74.89
2022-10-31T06:04:40.195Z,74.62
2022-10-31T06:06:12.541Z,74.42
2022-10-31T06:07:44.987Z,74.46
2022-10-31T06:09:17.193Z,74.64
2022-10-31T06:10:49.418Z,74.53
2022-10-31T06:12:21.622Z,74.30
2022-10-31T06:13:53.712Z,74.29
2022-10-31T06:15:26.062Z,74.37
2022-10-31T06:16:58.187Z,74.23
2022-10-31T06:18:30.503Z,73.75
2022-10-31T06:20:03.184Z,73.95
2022-10-31T06:21:38.023Z,73.76
2022-10-31T06:23:10.520Z,73.45
2022-10-31T06:24:45.277Z,73.49
2022-10-31T06:26:17.736Z,73.19
2022-10-31T06:27:50.093Z,73.06
2022-10-31T06:29:22.639Z,72.63
2022-10-31T06:30:54.925Z,72.54
2022-10-31T06:32:27.294Z,72.34
2022-10-31T06:33:59.518Z,72.22
2022-10-31T06:35:32.069Z,71.97
2022-10-31T06:38:37.487Z,70.92
2022-10-31T06:40:10.482Z,70.76
2022-10-31T06:41:43.073Z,70.97
2022-10-31T06:43:16.327Z,70.69
2022-10-31T06:44:48.366Z,70.39
2022-10-31T06:46:20.784Z,70.39
2022-10-31T06:48:16.098Z,70.23
2022-10-31T06:49:46.979Z,70.00
2022-10-31T06:51:19.260Z,70.09
2022-10-31T06:52:53.465Z,69.91
2022-10-31T06:54:25.636Z,69.62
2022-10-31T06:55:58.309Z,69.18
2022-10-31T06:57:30.511Z,68.89
2022-10-31T06:59:02.949Z,68.74
2022-10-31T07:00:35.246Z,68.40
2022-10-31T07:02:10.697Z,68.24
2022-10-31T07:03:43.016Z,68.13
2022-10-31T07:05:15.433Z,67.83
2022-10-31T07:06:51.760Z,67.99
2022-10-31T07:08:24.697Z,67.33
2022-10-31T07:09:57.042Z,66.33
2022-10-31T07:11:29.283Z,66.20
2022-10-31T07:13:04.793Z,65.86
2022-10-31T07:14:37.475Z,65.46
2022-10-31T07:16:11.855Z,65.37
2022-10-31T09:09:14.203Z,42.72
2022-10-31T09:10:46.924Z,42.87
2022-10-31T09:12:19.074Z,43.06
2022-10-31T09:13:51.377Z,42.89
2022-10-31T09:15:23.690Z,42.88
2022-10-31T09:16:55.911Z,42.21
2022-10-31T09:18:33.272Z,42.52
2022-10-31T09:20:05.863Z,43.16
2022-10-31T09:21:38.054Z,42.29
2022-10-31T09:23:24.086Z,42.28
2022-10-31T09:24:56.289Z,42.48
2022-10-31T09:26:28.605Z,42.82
2022-10-31T09:28:02.437Z,43.19
2022-10-31T09:29:34.922Z,42.76
2022-10-31T09:31:07.432Z,42.16
2022-10-31T09:32:39.785Z,42.02
2022-10-31T09:34:12.085Z,42.12
2022-10-31T09:35:44.376Z,42.06
2022-10-31T09:37:16.938Z,41.69
2022-10-31T09:38:49.298Z,41.66
2022-10-31T09:40:21.622Z,41.70
2022-10-31T09:42:05.370Z,41.64
2022-10-31T09:43:49.782Z,41.58
2022-10-31T09:45:34.586Z,41.88
2022-10-31T09:47:25.220Z,41.61
2022-10-31T09:49:16.427Z,41.86
2022-10-31T09:51:01.387Z,42.08
2022-10-31T09:52:36.152Z,42.36
2022-10-31T09:54:18.098Z,42.04
2022-10-31T09:55:50.921Z,41.77
2022-10-31T09:57:30.288Z,42.00
2022-10-31T09:59:04.500Z,41.01
2022-10-31T10:00:37.441Z,41.21
2022-10-31T10:02:31.942Z,41.10
2022-10-31T10:04:41.050Z,40.59
2022-10-31T10:06:23.138Z,40.27
2022-10-31T10:08:20.107Z,41.04
2022-10-31T10:09:52.343Z,41.37
2022-10-31T10:11:50.241Z,41.22
2022-10-31T10:14:00.924Z,39.96
2022-10-31T10:15:44.925Z,39.89
2022-10-31T10:17:36.888Z,39.59
2022-10-31T10:19:15.520Z,40.06
2022-10-31T10:21:20.476Z,40.20
2022-10-31T10:23:26.852Z,39.04
2022-10-31T10:25:04.992Z,39.65
2022-10-31T10:26:44.688Z,39.10
2022-10-31T10:28:28.053Z,39.87
2022-10-31T10:30:05.724Z,39.88
2022-10-31T10:31:42.188Z,40.24
2022-10-31T10:33:35.410Z,39.75
2022-10-31T10:35:35.647Z,39.43
2022-10-31T10:39:00.381Z,39.58
2022-10-31T10:40:32.789Z,39.72
2022-10-31T10:42:31.388Z,39.42
2022-10-31T10:44:03.677Z,39.60
2022-10-31T10:45:54.168Z,39.50
2022-10-31T10:47:39.896Z,38.95
2022-10-31T10:49:19.863Z,38.35
2022-10-31T10:50:53.145Z,38.25
2022-10-31T10:52:50.179Z,38.31
2022-10-31T10:54:30.711Z,39.42
2022-10-31T10:56:11.721Z,39.23
2022-10-31T10:58:03.176Z,38.60
2022-10-31T10:59:36.208Z,38.32
2022-10-31T11:03:08.116Z,38.44
2022-10-31T11:04:41.674Z,37.83
2022-10-31T11:06:34.192Z,36.77
2022-10-31T11:08:07.301Z,37.39
2022-10-31T11:09:40.009Z,38.04
2022-10-31T11:11:18.323Z,37.58
2022-10-31T11:13:11.844Z,36.62
2022-10-31T11:14:53.325Z,37.53
2022-10-31T11:16:30.524Z,37.11
2022-10-31T11:18:03.224Z,37.71
2022-10-31T11:19:35.485Z,37.13
2022-10-31T11:21:10.789Z,36.98
2022-10-31T11:22:49.789Z,36.91
2022-10-31T11:24:22.165Z,36.44
2022-10-31T11:26:03.231Z,36.28
2022-10-31T11:27:35.399Z,36.27
2022-10-31T11:29:23.226Z,35.90
2022-10-31T11:30:57.744Z,36.17
2022-10-31T11:32:31.203Z,36.52
2022-10-31T11:34:06.122Z,36.83
2022-10-31T11:35:40.997Z,36.83
2022-10-31T11:37:18.838Z,36.88
2022-10-31T11:38:52.463Z,37.43
2022-10-31T11:40:27.143Z,37.81
2022-10-31T11:42:08.562Z,36.46
2022-10-31T11:43:47.102Z,37.17
2022-10-31T11:45:32.751Z,36.22
2022-10-31T11:47:07.454Z,36.89
2022-10-31T11:48:39.970Z,36.98
2022-10-31T11:50:13.809Z,37.10
2022-10-31T11:51:50.358Z,37.33
2022-10-31T11:53:33.940Z,37.11
2022-10-31T11:55:12.217Z,37.88
2022-10-31T11:56:44.589Z,38.43
2022-10-31T11:58:27.434Z,37.97
2022-10-31T12:00:02.087Z,38.06
2022-10-31T12:01:35.076Z,38.35
2022-10-31T12:03:25.783Z,37.11
2022-10-31T12:05:09.686Z,37.56
2022-10-31T12:06:43.758Z,36.97
2022-10-31T12:08:16.106Z,37.50
2022-10-31T12:09:48.483Z,37.20
2022-10-31T12:11:41.780Z,37.68
2022-10-31T12:13:23.124Z,37.11
2022-10-31T12:15:16.204Z,36.87
2022-10-31T12:16:59.141Z,36.32
2022-10-31T12:18:39.304Z,37.17
2022-10-31T12:20:39.427Z,36.46
2022-10-31T12:22:31.079Z,35.40
2022-10-31T12:24:03.243Z,36.30
2022-10-31T12:25:46.226Z,35.63
2022-10-31T12:27:37.112Z,35.30
2022-10-31T12:29:25.877Z,35.55
2022-10-31T12:31:14.110Z,36.27
2022-10-31T12:33:11.170Z,36.54
2022-10-31T12:34:53.610Z,36.39
2022-10-31T12:36:50.287Z,36.54
2022-10-31T12:38:50.156Z,35.70
2022-10-31T12:40:31.530Z,35.83
2022-10-31T12:42:16.640Z,35.98
2022-10-31T12:44:07.330Z,36.18
2022-10-31T12:45:56.255Z,35.42
2022-10-31T12:47:47.657Z,35.26
2022-10-31T12:49:46.991Z,35.35
2022-10-31T13:15:27.250Z,35.18
2022-10-31T13:17:01.665Z,35.31
2022-10-31T13:18:39.623Z,35.68
2022-10-31T13:20:22.612Z,36.23
2022-10-31T13:22:26.541Z,35.68
2022-10-31T13:24:00.852Z,35.99
2022-10-31T13:25:39.939Z,36.01
2022-10-31T13:27:23.239Z,36.04
2022-10-31T13:29:26.934Z,36.05
2022-10-31T13:31:03.172Z,35.85
2022-10-31T13:33:09.544Z,35.69
2022-10-31T13:34:47.919Z,35.12
2022-10-31T13:36:47.663Z,35.71
2022-10-31T13:38:32.187Z,35.41
2022-10-31T13:40:10.931Z,35.54
2022-10-31T13:41:52.045Z,35.41
2022-10-31T13:44:56.474Z,35.97
2022-10-31T13:46:34.481Z,36.13
2022-10-31T13:48:15.935Z,36.14
2022-10-31T13:49:48.262Z,36.54
2022-10-31T13:51:29.833Z,36.66
2022-10-31T13:53:40.030Z,36.58
2022-10-31T13:55:53.603Z,36.89
2022-10-31T13:57:45.611Z,36.75
2022-10-31T13:59:29.063Z,36.94
2022-10-31T14:01:16.072Z,37.01
2022-10-31T14:02:58.919Z,37.28
2022-10-31T14:04:48.509Z,37.10
2022-10-31T14:06:24.051Z,37.13
2022-10-31T14:07:57.941Z,37.29
2022-10-31T14:09:40.130Z,37.38
2022-10-31T14:11:26.354Z,37.54
2022-10-31T14:13:16.380Z,37.64
2022-10-31T14:14:51.490Z,37.99
2022-10-31T14:16:29.463Z,38.02
2022-10-31T14:18:08.632Z,38.17
2022-10-31T14:19:40.991Z,38.25
2022-10-31T14:21:25.622Z,38.27
2022-10-31T14:24:50.233Z,38.52
2022-10-31T14:26:28.155Z,38.60
2022-10-31T14:28:03.332Z,39.04
2022-10-31T14:29:36.376Z,38.89
2022-10-31T14:31:46.435Z,39.35
2022-10-31T14:33:21.193Z,39.56
2022-10-31T14:34:59.041Z,39.99
2022-10-31T14:36:39.370Z,40.14
2022-10-31T14:38:23.961Z,40.06
2022-10-31T14:40:20.455Z,40.33
2022-10-31T14:42:18.644Z,40.67
2022-10-31T14:44:12.221Z,41.14
2022-10-31T14:45:44.485Z,41.32
2022-10-31T14:47:37.591Z,41.82
2022-10-31T14:49:25.957Z,42.02
2022-10-31T14:50:59.967Z,41.88
2022-10-31T14:52:32.382Z,42.19
2022-10-31T14:54:06.762Z,42.28
2022-10-31T14:55:45.235Z,42.52
2022-10-31T14:57:32.475Z,42.62
2022-10-31T14:59:08.758Z,42.49
2022-10-31T15:00:44.806Z,42.48
2022-10-31T15:02:27.240Z,42.46
2022-10-31T15:04:27.653Z,43.11
2022-10-31T15:06:07.409Z,43.17
2022-10-31T15:07:50.899Z,43.76
2022-10-31T15:09:28.278Z,43.52
2022-10-31T15:11:04.857Z,43.73
2022-10-31T15:14:27.947Z,44.84
2022-10-31T15:16:00.719Z,44.59
2022-10-31T15:17:33.927Z,44.68
2022-10-31T15:19:07.046Z,44.98
2022-10-31T15:20:44.717Z,45.04
2022-10-31T15:22:22.392Z,45.30
2022-10-31T15:23:56.229Z,45.62
2022-10-31T15:25:32.114Z,46.09
2022-10-31T15:27:05.475Z,46.14
2022-10-31T15:28:37.888Z,46.20
2022-10-31T15:30:36.117Z,46.23
2022-10-31T15:32:21.552Z,46.54
2022-10-31T15:33:54.220Z,46.53
2022-10-31T15:35:29.082Z,46.25
2022-10-31T15:37:01.643Z,46.70
2022-10-31T15:38:34.329Z,46.43
2022-10-31T15:40:17.056Z,46.72
2022-10-31T15:41:55.209Z,47.02
2022-10-31T15:43:34.811Z,48.21
2022-10-31T15:45:25.208Z,48.29
2022-10-31T15:47:04.142Z,48.85
2022-10-31T15:48:36.893Z,49.08
2022-10-31T15:50:22.588Z,50.01
2022-10-31T15:51:55.106Z,49.93
2022-10-31T15:53:34.937Z,50.04
2022-10-31T15:55:23.671Z,50.17
2022-10-31T15:56:55.993Z,50.32
2022-10-31T15:58:29.799Z,50.34
2022-10-31T16:00:02.567Z,50.55
2022-10-31T16:01:35.335Z,50.18
2022-10-31T16:03:15.740Z,50.18
2022-10-31T16:04:56.974Z,50.37
2022-10-31T16:06:29.566Z,50.71
2022-10-31T16:08:04.472Z,51.05
2022-10-31T16:09:36.737Z,51.55
2022-10-31T16:11:09.839Z,51.92
2022-10-31T16:12:47.139Z,52.52
2022-10-31T16:14:25.768Z,52.51
2022-10-31T16:17:31.578Z,52.94
2022-10-31T16:19:05.364Z,53.43
2022-10-31T16:20:39.130Z,53.74
2022-10-31T16:22:13.968Z,54.13
2022-10-31T16:23:58.223Z,54.44
2022-10-31T16:25:35.714Z,53.95
2022-10-31T16:27:21.563Z,54.37
2022-10-31T16:29:03.195Z,54.48
2022-10-31T16:30:48.238Z,54.90
2022-10-31T16:32:56.781Z,54.82
2022-10-31T16:34:29.523Z,55.22
2022-10-31T16:36:29.970Z,55.41
2022-10-31T16:37:57.307Z,55.42
2022-10-31T16:39:29.513Z,55.76
2022-10-31T16:41:02.496Z,55.92
2022-10-31T16:42:34.940Z,55.77
2022-10-31T16:44:19.429Z,55.83
2022-10-31T16:45:53.014Z,56.05
2022-10-31T16:47:27.662Z,56.00
2022-10-31T16:49:01.116Z,56.22
2022-10-31T16:50:34.300Z,56.29
2022-10-31T16:52:06.854Z,56.38
2022-10-31T16:53:44.134Z,56.70
2022-10-31T16:55:20.888Z,56.87
2022-10-31T16:56:53.342Z,57.05
2022-10-31T16:58:29.077Z,57.05
2022-10-31T17:00:01.522Z,57.33
2022-10-31T17:01:34.457Z,57.32
2022-10-31T17:03:06.763Z,57.56
2022-10-31T17:04:39.179Z,57.84
2022-10-31T17:06:14.620Z,57.58
2022-10-31T17:07:47.333Z,57.92
2022-10-31T17:09:19.603Z,58.00
2022-10-31T17:10:58.752Z,58.14
2022-10-31T17:12:31.021Z,58.24
2022-10-31T17:14:04.988Z,58.33
2022-10-31T17:15:43.604Z,58.40
2022-10-31T17:17:16.004Z,58.26
2022-10-31T17:18:48.285Z,58.40
2022-10-31T17:20:29.316Z,58.52
2022-10-31T17:22:03.228Z,58.40
2022-10-31T17:23:36.329Z,58.62
2022-10-31T17:25:12.184Z,58.59
2022-10-31T17:26:44.399Z,58.84
2022-10-31T17:28:18.888Z,58.62
2022-10-31T17:29:51.304Z,58.76
2022-10-31T17:31:29.199Z,58.88
2022-10-31T17:33:01.749Z,59.23
2022-10-31T17:34:34.262Z,59.28
2022-10-31T17:36:09.918Z,59.44
2022-10-31T17:37:45.543Z,59.88
2022-10-31T17:39:18.907Z,59.98
2022-10-31T17:40:50.835Z,60.17
2022-10-31T17:42:22.871Z,60.65
2022-10-31T17:43:59.361Z,60.86
2022-10-31T17:45:31.823Z,60.91
2022-10-31T17:47:04.190Z,61.19
2022-10-31T17:48:37.600Z,61.12
2022-10-31T17:50:09.829Z,60.63
2022-10-31T17:51:42.101Z,60.23
2022-10-31T17:53:14.314Z,60.65
2022-10-31T17:54:46.850Z,61.14
2022-10-31T17:56:19.179Z,61.13
2022-10-31T17:57:51.550Z,61.19
2022-10-31T17:59:23.869Z,61.48
2022-10-31T18:00:56.354Z,61.43
2022-10-31T18:02:28.795Z,62.00
2022-10-31T18:04:01.263Z,61.68
2022-10-31T18:05:34.335Z,61.88
2022-10-31T18:07:07.075Z,61.77
2022-10-31T18:08:40.937Z,61.70
2022-10-31T18:10:13.485Z,61.63
2022-10-31T18:11:45.814Z,61.60
2022-10-31T18:13:18.099Z,61.65
2022-10-31T18:14:51.447Z,61.68
2022-10-31T18:16:23.756Z,61.60
2022-10-31T18:17:56.170Z,61.84
2022-10-31T18:19:28.568Z,62.14
2022-10-31T18:21:00.914Z,62.20
2022-10-31T18:22:33.392Z,62.33
2022-10-31T18:24:06.191Z,62.83
2022-10-31T18:25:41.409Z,62.87
2022-10-31T18:27:13.764Z,62.98
2022-10-31T18:28:46.190Z,63.01
2022-10-31T18:30:19.469Z,63.16
2022-10-31T18:31:53.955Z,63.52
2022-10-31T18:33:26.208Z,63.68
2022-10-31T18:34:58.565Z,63.43
2022-10-31T18:36:31.008Z,63.78
2022-10-31T18:38:03.499Z,63.75
2022-10-31T18:39:35.859Z,63.22
2022-10-31T18:41:09.536Z,62.93
2022-10-31T18:42:41.894Z,62.88
2022-10-31T18:44:14.159Z,63.16
2022-10-31T18:45:48.765Z,63.52
2022-10-31T18:47:23.812Z,63.91
2022-10-31T18:50:35.241Z,64.40
2022-10-31T18:52:07.514Z,64.69
2022-10-31T18:53:39.845Z,65.15
2022-10-31T18:55:12.086Z,65.19
2022-10-31T18:56:44.997Z,65.18
2022-10-31T18:58:17.626Z,65.20
2022-10-31T18:59:49.925Z,65.17
2022-10-31T19:01:22.987Z,65.13
2022-10-31T19:02:57.202Z,65.10
2022-10-31T19:04:29.528Z,65.32
2022-10-31T19:06:02.090Z,65.34
2022-10-31T19:07:34.206Z,65.64
2022-10-31T19:09:09.958Z,65.59
2022-10-31T19:10:42.251Z,65.80
2022-10-31T19:12:14.288Z,65.99
2022-10-31T19:13:46.339Z,66.07
2022-10-31T19:15:18.451Z,65.88
2022-10-31T19:16:52.437Z,65.98
2022-10-31T19:18:25.091Z,66.01
2022-10-31T19:19:57.412Z,66.01
2022-10-31T19:21:31.491Z,66.01
2022-10-31T19:24:48.662Z,66.14
2022-10-31T19:26:21.060Z,66.51
2022-10-31T19:27:53.295Z,66.72
2022-10-31T19:29:25.411Z,66.76
2022-10-31T19:30:58.402Z,66.75
2022-10-31T19:32:30.728Z,66.56
2022-10-31T19:34:02.955Z,66.61
2022-10-31T19:35:35.033Z,66.74
2022-10-31T19:37:07.163Z,67.14
2022-10-31T19:38:41.063Z,66.89
2022-10-31T19:40:13.823Z,66.97
2022-10-31T19:41:46.249Z,67.04
2022-10-31T19:43:18.491Z,67.22
2022-10-31T19:44:50.619Z,67.07
2022-10-31T19:46:47.722Z,67.14
2022-10-31T19:48:15.921Z,67.04
2022-10-31T19:49:48.231Z,67.18
2022-10-31T19:51:22.715Z,67.34
2022-10-31T19:52:54.786Z,67.20
2022-10-31T19:54:26.823Z,67.24
2022-10-31T19:55:59.744Z,67.07
2022-10-31T19:57:56.634Z,67.23
2022-10-31T19:59:23.878Z,67.11
2022-10-31T20:00:56.536Z,67.22
2022-10-31T20:02:28.675Z,67.26
2022-10-31T20:04:01.178Z,67.17
2022-10-31T20:05:33.704Z,67.46
2022-10-31T20:07:06.945Z,67.76
2022-10-31T20:08:39.657Z,67.84
2022-10-31T20:10:12.136Z,68.07
2022-10-31T20:11:46.298Z,68.21
2022-10-31T20:13:18.393Z,68.14
2022-10-31T20:14:50.539Z,68.00
2022-10-31T20:16:22.903Z,68.14
2022-10-31T20:17:55.435Z,68.21
2022-10-31T20:19:27.817Z,68.28
2022-10-31T20:21:14.018Z,68.18
2022-10-31T20:22:50.637Z,68.23
2022-10-31T20:24:22.808Z,68.19
2022-10-31T20:25:55.153Z,68.17
2022-10-31T20:27:27.344Z,68.18
2022-10-31T20:29:00.684Z,68.66
2022-10-31T20:30:37.323Z,68.52
2022-10-31T20:32:09.549Z,68.67
2022-10-31T20:33:41.815Z,68.70
2022-10-31T20:35:13.914Z,68.96
2022-10-31T20:36:46.292Z,69.12
2022-10-31T20:38:18.374Z,69.11
2022-10-31T20:39:52.710Z,68.99
2022-10-31T20:41:28.050Z,69.24
2022-10-31T20:43:01.676Z,69.25
2022-10-31T20:44:33.763Z,69.18
2022-10-31T20:46:08.236Z,68.86
2022-10-31T20:47:40.373Z,68.69
2022-10-31T20:49:12.490Z,68.96
2022-10-31T20:50:44.511Z,68.73
2022-10-31T20:52:18.994Z,68.81
2022-10-31T20:53:52.550Z,68.71
2022-10-31T20:55:24.772Z,68.51
2022-10-31T20:56:56.856Z,68.55
2022-10-31T20:58:29.020Z,68.72
2022-10-31T21:00:01.317Z,68.61
2022-10-31T21:01:36.725Z,69.03
2022-10-31T21:03:08.885Z,69.15
2022-10-31T21:04:40.956Z,69.12
2022-10-31T21:06:13.616Z,69.14
2022-10-31T21:07:45.746Z,69.15
2022-10-31T21:09:18.357Z,69.14
2022-10-31T21:10:50.898Z,69.34
2022-10-31T21:12:22.982Z,69.24
2022-10-31T21:13:55.479Z,69.35
2022-10-31T21:15:27.526Z,69.07
2022-10-31T21:16:59.520Z,68.90
2022-10-31T21:18:31.613Z,69.08
2022-10-31T21:20:05.740Z,69.15
2022-10-31T21:21:38.068Z,69.26
2022-10-31T21:23:13.745Z,69.09
2022-10-31T21:24:45.796Z,69.03
2022-10-31T21:26:21.372Z,69.10
2022-10-31T21:27:53.446Z,69.08
2022-10-31T21:29:25.941Z,69.23
2022-10-31T21:31:00.013Z,69.50
2022-10-31T21:32:32.223Z,69.42
2022-10-31T21:34:04.293Z,69.46
2022-10-31T21:35:36.368Z,69.64
2022-10-31T21:37:08.369Z,69.92
2022-10-31T21:38:40.847Z,70.06
2022-10-31T21:40:13.144Z,69.92
2022-10-31T21:41:45.281Z,70.09
2022-10-31T21:43:17.384Z,70.06
2022-10-31T21:44:52.298Z,70.17
2022-10-31T21:46:29.246Z,70.07
2022-10-31T21:48:01.574Z,69.81
2022-10-31T21:49:33.695Z,69.81
2022-10-31T21:51:06.382Z,70.01
2022-10-31T21:52:41.559Z,70.28
2022-10-31T21:54:28.927Z,70.44
2022-10-31T21:56:04.662Z,70.67
2022-10-31T21:57:36.922Z,70.53
2022-10-31T21:59:09.009Z,70.90
2022-10-31T22:00:41.044Z,70.73
2022-10-31T22:02:13.225Z,70.92
2022-10-31T22:03:45.887Z,70.95
2022-10-31T22:05:17.906Z,70.66
2022-10-31T22:06:50.359Z,70.64
2022-10-31T22:08:22.551Z,70.73
2022-10-31T22:09:54.671Z,70.95
2022-10-31T22:11:28.802Z,70.98
2022-10-31T22:13:00.799Z,70.79
2022-10-31T22:14:33.044Z,70.85
2022-10-31T22:16:07.664Z,70.97
2022-10-31T22:17:39.724Z,70.80
2022-10-31T22:19:13.839Z,70.90
2022-10-31T22:20:45.948Z,70.77
2022-10-31T22:22:17.997Z,70.83
2022-10-31T22:24:01.773Z,70.68
2022-10-31T22:25:39.625Z,70.74
2022-10-31T22:27:11.546Z,70.87
2022-10-31T22:28:48.777Z,71.00
2022-10-31T22:30:20.748Z,70.97
2022-10-31T22:31:57.328Z,70.84
2022-10-31T22:33:33.170Z,70.63
2022-10-31T22:35:07.820Z,70.55
2022-10-31T22:36:40.131Z,70.61
2022-10-31T22:38:12.076Z,70.50
2022-10-31T22:39:44.127Z,70.59
2022-10-31T22:41:18.547Z,70.60
2022-10-31T22:42:50.543Z,71.01
2022-10-31T22:44:22.619Z,71.12
2022-10-31T22:45:56.206Z,71.08
2022-10-31T22:47:28.247Z,71.36
2022-10-31T22:49:05.983Z,71.34
2022-10-31T22:50:39.226Z,71.41
2022-10-31T22:52:11.193Z,71.55
2022-10-31T22:53:43.893Z,71.77
2022-10-31T22:55:17.607Z,71.87
2022-10-31T22:56:49.638Z,72.09
2022-10-31T22:58:21.725Z,71.92
2022-10-31T22:59:53.813Z,72.28
2022-10-31T23:01:28.629Z,72.17
2022-10-31T23:03:00.716Z,72.28
2022-10-31T23:04:32.881Z,72.28
2022-10-31T23:07:44.156Z,72.12
2022-10-31T23:09:17.370Z,72.26
2022-10-31T23:10:49.571Z,71.95
2022-10-31T23:12:39.894Z,71.87
2022-10-31T23:14:18.827Z,72.41
2022-10-31T23:15:50.844Z,72.49
2022-10-31T23:17:22.793Z,72.81
2022-10-31T23:18:54.788Z,72.59
2022-10-31T23:20:26.851Z,72.68
2022-10-31T23:22:02.536Z,72.80
2022-10-31T23:23:38.040Z,72.82
2022-10-31T23:25:10.338Z,73.18